Time,TemperatureF,DewpointF,PressureIn,WindDirection,WindDirectionDegrees,WindSpeedMPH,WindSpeedGustMPH,Humidity,HourlyPrecipIn,Conditions,Clouds,dailyrainin,SolarRadiationWatts/m^2,SoftwareType,DateUTC
2013-11-30 00:01:00,14.7,9.9,30.73,North,5,1.0,1.0,81,0.00,,,0.00,0,Wunderground v.1.15,2013-11-30 05:01:00,
2013-11-30 00:06:00,15.3,10.0,30.73,NNW,346,1.0,1.0,79,0.00,,,0.00,0,Wunderground v.1.15,2013-11-30 05:06:00,
2013-11-30 00:16:00,15.0,9.1,30.73,North,355,0.0,1.0,77,0.00,,,0.00,0,Wunderground v.1.15,2013-11-30 05:16:00,
2013-11-30 00:26:00,14.4,8.8,30.73,NNW,338,0.0,0.0,78,0.00,,,0.00,0,Wunderground v.1.15,2013-11-30 05:26:00,
2013-11-30 00:31:00,13.9,8.6,30.73,NNW,338,0.0,0.0,79,0.00,,,0.00,0,Wunderground v.1.15,2013-11-30 05:31:00,
2013-11-30 00:36:00,13.5,8.2,30.73,NNW,338,0.0,0.0,79,0.00,,,0.00,0,Wunderground v.1.15,2013-11-30 05:36:00,
2013-11-30 00:46:00,12.9,8.2,30.74,NNW,338,0.0,0.0,81,0.00,,,0.00,0,Wunderground v.1.15,2013-11-30 05:46:00,
2013-11-30 00:51:00,12.6,7.9,30.74,NNW,338,0.0,0.0,81,0.00,,,0.00,0,Wunderground v.1.15,2013-11-30 05:51:00,
2013-11-30 00:56:00,12.6,8.1,30.74,NNW,338,0.0,0.0,82,0.00,,,0.00,0,Wunderground v.1.15,2013-11-30 05:56:00,
2013-11-30 01:01:00,12.0,7.6,30.74,NNW,338,0.0,0.0,82,0.00,,,0.00,0,Wunderground v.1.15,2013-11-30 06:01:00,
2013-11-30 01:11:00,11.5,7.6,30.74,NNW,338,0.0,0.0,84,0.00,,,0.00,0,Wunderground v.1.15,2013-11-30 06:11:00,
2013-11-30 01:21:00,11.1,7.5,30.74,NNW,338,0.0,0.0,85,0.00,,,0.00,0,Wunderground v.1.15,2013-11-30 06:21:00,
2013-11-30 01:31:00,10.9,7.5,30.75,NNW,338,0.0,0.0,86,0.00,,,0.00,0,Wunderground v.1.15,2013-11-30 06:31:00,
2013-11-30 01:41:00,10.8,7.4,30.75,NNW,338,0.0,0.0,86,0.00,,,0.00,0,Wunderground v.1.15,2013-11-30 06:41:00,
2013-11-30 01:51:00,10.7,7.3,30.75,NNW,338,0.0,0.0,86,0.00,,,0.00,0,Wunderground v.1.15,2013-11-30 06:51:00,
2013-11-30 02:01:00,10.1,6.7,30.75,NNW,338,0.0,0.0,86,0.00,,,0.00,0,Wunderground v.1.15,2013-11-30 07:01:00,
2013-11-30 02:11:00,9.9,6.8,30.76,NNW,338,0.0,0.0,87,0.00,,,0.00,0,Wunderground v.1.15,2013-11-30 07:11:00,
2013-11-30 02:21:00,9.9,6.8,30.76,NNW,338,0.0,0.0,87,0.00,,,0.00,0,Wunderground v.1.15,2013-11-30 07:21:00,
2013-11-30 02:31:00,10.2,7.4,30.76,NNW,338,0.0,0.0,88,0.00,,,0.00,0,Wunderground v.1.15,2013-11-30 07:31:00,
2013-11-30 02:41:00,9.9,6.8,30.76,NNW,338,0.0,0.0,87,0.00,,,0.00,0,Wunderground v.1.15,2013-11-30 07:41:00,
2013-11-30 02:51:00,9.8,7.0,30.75,NNW,338,0.0,0.0,88,0.00,,,0.00,0,Wunderground v.1.15,2013-11-30 07:51:00,
2013-11-30 02:56:00,9.8,7.0,30.76,NNW,338,0.0,0.0,88,0.00,,,0.00,0,Wunderground v.1.15,2013-11-30 07:56:00,
2013-11-30 03:01:00,9.6,6.8,30.76,NNW,338,0.0,0.0,88,0.00,,,0.00,0,Wunderground v.1.15,2013-11-30 08:01:00,
2013-11-30 03:11:00,9.4,6.6,30.75,NNW,338,0.0,0.0,88,0.00,,,0.00,0,Wunderground v.1.15,2013-11-30 08:11:00,
2013-11-30 03:21:00,9.2,6.4,30.76,NNW,338,0.0,0.0,88,0.00,,,0.00,0,Wunderground v.1.15,2013-11-30 08:21:00,
2013-11-30 03:31:00,8.9,6.1,30.76,NNW,338,0.0,0.0,88,0.00,,,0.00,0,Wunderground v.1.15,2013-11-30 08:31:00,
2013-11-30 03:41:00,8.9,6.3,30.77,NNW,338,0.0,0.0,89,0.00,,,0.00,0,Wunderground v.1.15,2013-11-30 08:41:00,
2013-11-30 03:51:00,8.9,6.3,30.76,NNW,338,0.0,0.0,89,0.00,,,0.00,0,Wunderground v.1.15,2013-11-30 08:51:00,
2013-11-30 04:01:00,8.7,6.1,30.77,NNW,338,0.0,0.0,89,0.00,,,0.00,0,Wunderground v.1.15,2013-11-30 09:01:00,
2013-11-30 04:11:00,8.6,5.8,30.77,NNW,338,0.0,0.0,88,0.00,,,0.00,0,Wunderground v.1.15,2013-11-30 09:11:00,
2013-11-30 04:21:00,8.5,5.7,30.77,NNW,338,0.0,0.0,88,0.00,,,0.00,0,Wunderground v.1.15,2013-11-30 09:21:00,
2013-11-30 04:31:00,8.7,6.1,30.76,NNW,338,0.0,0.0,89,0.00,,,0.00,0,Wunderground v.1.15,2013-11-30 09:31:00,
2013-11-30 04:41:00,8.4,5.6,30.76,NNW,338,0.0,0.0,88,0.00,,,0.00,0,Wunderground v.1.15,2013-11-30 09:41:00,
2013-11-30 04:51:00,8.3,5.7,30.77,NNW,338,0.0,0.0,89,0.00,,,0.00,0,Wunderground v.1.15,2013-11-30 09:51:00,
2013-11-30 04:56:00,8.3,5.7,30.77,NNW,338,0.0,0.0,89,0.00,,,0.00,0,Wunderground v.1.15,2013-11-30 09:56:00,
2013-11-30 05:01:00,8.2,5.4,30.77,NNW,338,0.0,0.0,88,0.00,,,0.00,0,Wunderground v.1.15,2013-11-30 10:01:00,
2013-11-30 05:11:00,7.9,5.1,30.77,NNW,338,0.0,0.0,88,0.00,,,0.00,0,Wunderground v.1.15,2013-11-30 10:11:00,
2013-11-30 05:16:00,7.9,5.1,30.77,NNW,338,0.0,0.0,88,0.00,,,0.00,0,Wunderground v.1.15,2013-11-30 10:16:00,
2013-11-30 05:26:00,8.1,5.3,30.78,NNW,338,0.0,0.0,88,0.00,,,0.00,0,Wunderground v.1.15,2013-11-30 10:26:00,
2013-11-30 05:36:00,8.2,5.4,30.78,NNW,338,0.0,0.0,88,0.00,,,0.00,0,Wunderground v.1.15,2013-11-30 10:36:00,
2013-11-30 05:46:00,8.0,5.2,30.78,NNW,338,0.0,0.0,88,0.00,,,0.00,0,Wunderground v.1.15,2013-11-30 10:46:00,
2013-11-30 05:56:00,7.6,4.8,30.78,NNW,338,0.0,0.0,88,0.00,,,0.00,0,Wunderground v.1.15,2013-11-30 10:56:00,
2013-11-30 06:01:00,7.6,4.8,30.78,NNW,338,0.0,0.0,88,0.00,,,0.00,0,Wunderground v.1.15,2013-11-30 11:01:00,
2013-11-30 06:11:00,7.8,5.2,30.79,NNW,338,0.0,0.0,89,0.00,,,0.00,0,Wunderground v.1.15,2013-11-30 11:11:00,
2013-11-30 06:21:00,7.4,4.6,30.78,NNW,338,0.0,0.0,88,0.00,,,0.00,0,Wunderground v.1.15,2013-11-30 11:21:00,
2013-11-30 06:26:00,7.7,5.1,30.78,NNW,338,0.0,0.0,89,0.00,,,0.00,0,Wunderground v.1.15,2013-11-30 11:26:00,
2013-11-30 06:36:00,7.5,4.9,30.78,NNW,338,0.0,0.0,89,0.00,,,0.00,0,Wunderground v.1.15,2013-11-30 11:36:00,
2013-11-30 06:41:00,7.1,4.5,30.79,NNW,338,0.0,0.0,89,0.00,,,0.00,0,Wunderground v.1.15,2013-11-30 11:41:00,
2013-11-30 06:51:00,7.1,4.3,30.78,NNW,338,0.0,0.0,88,0.00,,,0.00,0,Wunderground v.1.15,2013-11-30 11:51:00,
2013-11-30 06:56:00,7.2,4.4,30.78,NNW,338,0.0,0.0,88,0.00,,,0.00,0,Wunderground v.1.15,2013-11-30 11:56:00,
2013-11-30 07:02:00,7.1,4.5,30.78,NNW,338,0.0,0.0,89,0.00,,,0.00,5,Wunderground v.1.15,2013-11-30 12:02:00,
2013-11-30 07:11:00,7.3,4.7,30.78,NNW,338,0.0,0.0,89,0.00,,,0.00,9,Wunderground v.1.15,2013-11-30 12:11:00,
2013-11-30 07:21:00,7.4,4.6,30.79,NNW,338,0.0,0.0,88,0.00,,,0.00,12,Wunderground v.1.15,2013-11-30 12:21:00,
2013-11-30 07:26:00,7.7,5.1,30.79,NNW,338,0.0,0.0,89,0.00,,,0.00,14,Wunderground v.1.15,2013-11-30 12:26:00,
2013-11-30 07:36:00,8.0,5.4,30.79,NNW,338,0.0,0.0,89,0.00,,,0.00,21,Wunderground v.1.15,2013-11-30 12:36:00,
2013-11-30 07:46:00,8.8,6.2,30.79,NNW,338,0.0,0.0,89,0.00,,,0.00,30,Wunderground v.1.15,2013-11-30 12:46:00,
2013-11-30 07:56:00,10.0,7.4,30.79,NNW,338,0.0,0.0,89,0.00,,,0.00,26,Wunderground v.1.15,2013-11-30 12:56:00,
2013-11-30 08:01:00,10.5,7.9,30.79,NNW,338,0.0,0.0,89,0.00,,,0.00,40,Wunderground v.1.15,2013-11-30 13:01:00,
2013-11-30 08:11:00,11.8,8.9,30.79,NNW,338,0.0,0.0,88,0.00,,,0.00,32,Wunderground v.1.15,2013-11-30 13:11:00,
2013-11-30 08:21:00,13.1,9.4,30.79,NNW,338,0.0,0.0,85,0.00,,,0.00,86,Wunderground v.1.15,2013-11-30 13:21:00,
2013-11-30 08:31:00,13.9,8.9,30.79,NW,318,0.0,0.0,80,0.00,,,0.00,77,Wunderground v.1.15,2013-11-30 13:31:00,
2013-11-30 08:41:00,14.2,8.9,30.80,NNW,329,0.0,3.0,79,0.00,,,0.00,37,Wunderground v.1.15,2013-11-30 13:41:00,
2013-11-30 08:51:00,14.7,9.1,30.80,NNW,331,2.0,4.0,78,0.00,,,0.00,35,Wunderground v.1.15,2013-11-30 13:51:00,
2013-11-30 08:56:00,15.1,9.5,30.80,NW,325,2.0,4.0,78,0.00,,,0.00,35,Wunderground v.1.15,2013-11-30 13:56:00,
2013-11-30 09:01:00,15.5,9.6,30.80,NNW,333,2.0,2.0,77,0.00,,,0.00,42,Wunderground v.1.15,2013-11-30 14:01:00,
2013-11-30 09:11:00,16.6,10.3,30.79,North,355,1.0,1.0,76,0.00,,,0.00,49,Wunderground v.1.15,2013-11-30 14:11:00,
2013-11-30 09:21:00,17.8,11.2,30.79,WNW,290,1.0,4.0,75,0.00,,,0.00,279,Wunderground v.1.15,2013-11-30 14:21:00,
2013-11-30 09:31:00,18.9,11.4,30.79,NNW,333,2.0,3.0,72,0.00,,,0.00,304,Wunderground v.1.15,2013-11-30 14:31:00,
2013-11-30 09:41:00,19.6,11.4,30.78,NNW,340,2.0,2.0,70,0.00,,,0.00,323,Wunderground v.1.15,2013-11-30 14:41:00,
2013-11-30 09:51:00,20.5,12.6,30.77,North,9,1.0,1.0,71,0.00,,,0.00,345,Wunderground v.1.15,2013-11-30 14:51:00,
2013-11-30 10:02:00,21.3,12.4,30.77,NNE,30,1.0,1.0,68,0.00,,,0.00,367,Wunderground v.1.15,2013-11-30 15:02:00,
2013-11-30 10:11:00,22.4,12.4,30.77,NNW,336,1.0,1.0,65,0.00,,,0.00,394,Wunderground v.1.15,2013-11-30 15:11:00,
2013-11-30 10:21:00,23.9,12.0,30.76,North,355,1.0,1.0,60,0.00,,,0.00,413,Wunderground v.1.15,2013-11-30 15:21:00,
2013-11-30 10:31:00,24.4,11.3,30.76,WNW,300,0.0,3.0,57,0.00,,,0.00,427,Wunderground v.1.15,2013-11-30 15:31:00,
2013-11-30 10:41:00,25.0,11.5,30.76,North,360,1.0,1.0,56,0.00,,,0.00,429,Wunderground v.1.15,2013-11-30 15:41:00,
2013-11-30 10:46:00,24.9,10.2,30.75,North,360,0.0,1.0,53,0.00,,,0.00,441,Wunderground v.1.15,2013-11-30 15:46:00,
2013-11-30 10:51:00,25.8,10.6,30.75,North,355,0.0,0.0,52,0.00,,,0.00,443,Wunderground v.1.15,2013-11-30 15:51:00,
2013-11-30 10:56:00,25.8,10.6,30.75,North,355,0.0,0.0,52,0.00,,,0.00,445,Wunderground v.1.15,2013-11-30 15:56:00,
2013-11-30 11:01:00,26.6,11.3,30.74,North,355,0.0,0.0,52,0.00,,,0.00,443,Wunderground v.1.15,2013-11-30 16:01:00,
2013-11-30 11:11:00,26.5,12.1,30.73,NW,313,1.0,1.0,54,0.00,,,0.00,454,Wunderground v.1.15,2013-11-30 16:11:00,
2013-11-30 11:16:00,27.3,12.0,30.73,NNW,344,0.0,1.0,52,0.00,,,0.00,452,Wunderground v.1.15,2013-11-30 16:16:00,
2013-11-30 11:21:00,27.0,12.1,30.73,NW,317,0.0,3.0,53,0.00,,,0.00,448,Wunderground v.1.15,2013-11-30 16:21:00,
2013-11-30 11:26:00,27.3,12.0,30.73,NNW,329,2.0,3.0,52,0.00,,,0.00,452,Wunderground v.1.15,2013-11-30 16:26:00,
2013-11-30 11:37:00,28.0,13.5,30.72,NW,315,1.0,2.0,54,0.00,,,0.00,457,Wunderground v.1.15,2013-11-30 16:37:00,
2013-11-30 11:47:00,27.9,13.4,30.71,West,260,1.0,1.0,54,0.00,,,0.00,450,Wunderground v.1.15,2013-11-30 16:47:00,
2013-11-30 11:52:00,28.1,14.0,30.71,NW,304,1.0,1.0,55,0.00,,,0.00,448,Wunderground v.1.15,2013-11-30 16:52:00,
2013-11-30 12:02:00,28.9,14.7,30.70,South,188,1.0,1.0,55,0.00,,,0.00,445,Wunderground v.1.15,2013-11-30 17:02:00,
2013-11-30 12:12:00,29.8,14.7,30.70,SSW,194,1.0,1.0,53,0.00,,,0.00,446,Wunderground v.1.15,2013-11-30 17:12:00,
2013-11-30 12:17:00,29.9,15.7,30.69,SSW,206,1.0,1.0,55,0.00,,,0.00,445,Wunderground v.1.15,2013-11-30 17:17:00,
2013-11-30 12:27:00,29.9,15.3,30.69,SSE,150,1.0,1.0,54,0.00,,,0.00,438,Wunderground v.1.15,2013-11-30 17:27:00,
2013-11-30 12:32:00,29.8,15.2,30.68,WNW,291,1.0,1.0,54,0.00,,,0.00,432,Wunderground v.1.15,2013-11-30 17:32:00,
2013-11-30 12:42:00,30.6,15.9,30.68,WSW,252,1.0,1.0,54,0.00,,,0.00,420,Wunderground v.1.15,2013-11-30 17:42:00,
2013-11-30 12:52:00,30.7,16.0,30.67,SSW,212,1.0,1.0,54,0.00,,,0.00,408,Wunderground v.1.15,2013-11-30 17:52:00,
2013-11-30 12:57:00,31.1,17.2,30.67,SSE,164,1.0,3.0,56,0.00,,,0.00,359,Wunderground v.1.15,2013-11-30 17:57:00,
2013-11-30 13:06:00,31.2,17.3,30.66,ESE,116,2.0,4.0,56,0.00,,,0.00,70,Wunderground v.1.15,2013-11-30 18:06:00,
2013-11-30 13:16:00,31.1,17.2,30.66,SSE,161,2.0,2.0,56,0.00,,,0.00,369,Wunderground v.1.15,2013-11-30 18:16:00,
2013-11-30 13:26:00,31.2,16.5,30.65,South,189,2.0,5.0,54,0.00,,,0.00,130,Wunderground v.1.15,2013-11-30 18:26:00,
2013-11-30 13:36:00,31.0,17.1,30.64,SE,124,1.0,2.0,56,0.00,,,0.00,188,Wunderground v.1.15,2013-11-30 18:36:00,
2013-11-30 13:46:00,31.1,17.2,30.64,SE,130,2.0,3.0,56,0.00,,,0.00,47,Wunderground v.1.15,2013-11-30 18:46:00,
2013-11-30 13:56:00,31.1,17.2,30.64,South,186,3.0,9.0,56,0.00,,,0.00,58,Wunderground v.1.15,2013-11-30 18:56:00,
2013-11-30 14:01:00,31.1,17.2,30.63,ENE,68,4.0,4.0,56,0.00,,,0.00,51,Wunderground v.1.15,2013-11-30 19:01:00,
2013-11-30 14:11:00,31.4,17.5,30.63,SSE,160,1.0,3.0,56,0.00,,,0.00,39,Wunderground v.1.15,2013-11-30 19:11:00,
2013-11-30 14:21:00,31.1,16.8,30.63,South,172,3.0,4.0,55,0.00,,,0.00,44,Wunderground v.1.15,2013-11-30 19:21:00,
2013-11-30 14:31:00,31.1,17.2,30.62,South,189,2.0,5.0,56,0.00,,,0.00,46,Wunderground v.1.15,2013-11-30 19:31:00,
2013-11-30 14:36:00,31.1,16.8,30.61,South,176,2.0,5.0,55,0.00,,,0.00,47,Wunderground v.1.15,2013-11-30 19:36:00,
2013-11-30 14:46:00,31.2,17.3,30.61,SE,144,2.0,3.0,56,0.00,,,0.00,32,Wunderground v.1.15,2013-11-30 19:46:00,
2013-11-30 14:56:00,31.2,17.3,30.61,SSE,152,2.0,4.0,56,0.00,,,0.00,35,Wunderground v.1.15,2013-11-30 19:56:00,
2013-11-30 15:01:00,31.2,17.3,30.62,South,185,2.0,3.0,56,0.00,,,0.00,51,Wunderground v.1.15,2013-11-30 20:01:00,
2013-11-30 15:11:00,31.2,17.3,30.61,SSE,157,1.0,1.0,56,0.00,,,0.00,32,Wunderground v.1.15,2013-11-30 20:11:00,
2013-11-30 15:21:00,31.2,17.3,30.61,SSW,202,2.0,2.0,56,0.00,,,0.00,37,Wunderground v.1.15,2013-11-30 20:21:00,
2013-11-30 15:26:00,31.2,17.3,30.61,South,184,1.0,2.0,56,0.00,,,0.00,35,Wunderground v.1.15,2013-11-30 20:26:00,
2013-11-30 15:36:00,31.1,17.6,30.61,SW,220,0.0,1.0,57,0.00,,,0.00,16,Wunderground v.1.15,2013-11-30 20:36:00,
2013-11-30 15:46:00,30.8,17.7,30.61,SSW,201,0.0,0.0,58,0.00,,,0.00,9,Wunderground v.1.15,2013-11-30 20:46:00,
2013-11-30 15:56:00,30.4,17.8,30.60,SSW,201,0.0,0.0,59,0.00,,,0.00,5,Wunderground v.1.15,2013-11-30 20:56:00,
2013-11-30 16:01:00,29.6,17.8,30.60,SSW,201,0.0,0.0,61,0.00,,,0.00,5,Wunderground v.1.15,2013-11-30 21:01:00,
2013-11-30 16:11:00,28.2,17.9,30.60,SSW,201,0.0,0.0,65,0.00,,,0.00,0,Wunderground v.1.15,2013-11-30 21:11:00,
2013-11-30 16:21:00,27.4,17.9,30.60,SSW,201,0.0,0.0,67,0.00,,,0.00,0,Wunderground v.1.15,2013-11-30 21:21:00,
2013-11-30 16:31:00,26.7,18.2,30.60,SSW,201,0.0,0.0,70,0.00,,,0.00,0,Wunderground v.1.15,2013-11-30 21:31:00,
2013-11-30 16:36:00,26.3,18.2,30.59,SSW,201,0.0,0.0,71,0.00,,,0.00,0,Wunderground v.1.15,2013-11-30 21:36:00,
2013-11-30 16:46:00,25.8,18.3,30.59,SSW,201,0.0,0.0,73,0.00,,,0.00,0,Wunderground v.1.15,2013-11-30 21:46:00,
2013-11-30 16:56:00,25.6,18.5,30.59,SSW,201,0.0,0.0,74,0.00,,,0.00,0,Wunderground v.1.15,2013-11-30 21:56:00,
2013-11-30 17:01:00,25.5,18.7,30.58,SSW,201,0.0,0.0,75,0.00,,,0.00,0,Wunderground v.1.15,2013-11-30 22:01:00,
2013-11-30 17:11:00,25.5,19.0,30.58,SSW,201,0.0,0.0,76,0.00,,,0.00,0,Wunderground v.1.15,2013-11-30 22:11:00,
2013-11-30 17:21:00,25.3,19.1,30.58,SSW,201,0.0,0.0,77,0.00,,,0.00,0,Wunderground v.1.15,2013-11-30 22:21:00,
2013-11-30 17:31:00,25.1,19.2,30.58,SSW,201,0.0,0.0,78,0.00,,,0.00,0,Wunderground v.1.15,2013-11-30 22:31:00,
2013-11-30 17:41:00,25.9,20.0,30.57,SSW,201,0.0,0.0,78,0.00,,,0.00,0,Wunderground v.1.15,2013-11-30 22:41:00,
2013-11-30 17:51:00,26.0,20.4,30.57,SSW,201,0.0,0.0,79,0.00,,,0.00,0,Wunderground v.1.15,2013-11-30 22:51:00,
2013-11-30 17:56:00,26.2,20.6,30.57,SSW,201,0.0,0.0,79,0.00,,,0.00,0,Wunderground v.1.15,2013-11-30 22:56:00,
2013-11-30 18:01:00,26.4,20.8,30.56,SSW,201,0.0,0.0,79,0.00,,,0.00,0,Wunderground v.1.15,2013-11-30 23:01:00,
2013-11-30 18:11:00,26.5,20.9,30.56,SSW,201,0.0,0.0,79,0.00,,,0.00,0,Wunderground v.1.15,2013-11-30 23:11:00,
2013-11-30 18:21:00,26.9,21.6,30.56,SSW,201,0.0,0.0,80,0.00,,,0.00,0,Wunderground v.1.15,2013-11-30 23:21:00,
2013-11-30 18:31:00,26.9,21.0,30.56,SSW,201,0.0,0.0,78,0.00,,,0.00,0,Wunderground v.1.15,2013-11-30 23:31:00,
2013-11-30 18:41:00,27.3,21.6,30.56,SSW,201,0.0,0.0,79,0.00,,,0.00,0,Wunderground v.1.15,2013-11-30 23:41:00,
2013-11-30 18:51:00,27.5,21.8,30.55,SSW,201,0.0,0.0,79,0.00,,,0.00,0,Wunderground v.1.15,2013-11-30 23:51:00,
2013-11-30 19:06:00,27.7,22.3,30.54,SSW,201,0.0,0.0,80,0.00,,,0.00,0,Wunderground v.1.15,2013-12-01 00:06:00,
2013-11-30 19:16:00,27.7,22.0,30.54,SSW,201,0.0,0.0,79,0.00,,,0.00,0,Wunderground v.1.15,2013-12-01 00:16:00,
2013-11-30 19:26:00,27.8,21.8,30.54,SSW,201,0.0,0.0,78,0.00,,,0.00,0,Wunderground v.1.15,2013-12-01 00:26:00,
2013-11-30 19:36:00,28.0,22.0,30.54,SSW,201,0.0,0.0,78,0.00,,,0.00,0,Wunderground v.1.15,2013-12-01 00:36:00,
2013-11-30 19:46:00,28.3,21.7,30.53,SSW,201,0.0,0.0,76,0.00,,,0.00,0,Wunderground v.1.15,2013-12-01 00:46:00,
2013-11-30 19:56:00,28.1,21.8,30.53,SSW,201,0.0,0.0,77,0.00,,,0.00,0,Wunderground v.1.15,2013-12-01 00:56:00,
2013-11-30 20:01:00,28.0,21.7,30.52,SSW,201,0.0,0.0,77,0.00,,,0.00,0,Wunderground v.1.15,2013-12-01 01:01:00,
2013-11-30 20:11:00,27.5,21.2,30.52,SSW,201,0.0,0.0,77,0.00,,,0.00,0,Wunderground v.1.15,2013-12-01 01:11:00,
2013-11-30 20:21:00,27.2,21.2,30.52,SSW,201,0.0,0.0,78,0.00,,,0.00,0,Wunderground v.1.15,2013-12-01 01:21:00,
2013-11-30 20:31:00,26.1,20.5,30.52,SSW,201,0.0,0.0,79,0.00,,,0.00,0,Wunderground v.1.15,2013-12-01 01:31:00,
2013-11-30 20:36:00,25.8,20.5,30.52,SSW,201,0.0,0.0,80,0.00,,,0.00,0,Wunderground v.1.15,2013-12-01 01:36:00,
2013-11-30 20:46:00,25.7,20.4,30.51,SSW,201,0.0,0.0,80,0.00,,,0.00,0,Wunderground v.1.15,2013-12-01 01:46:00,
2013-11-30 20:51:00,25.6,20.3,30.51,SSW,201,0.0,0.0,80,0.00,,,0.00,0,Wunderground v.1.15,2013-12-01 01:51:00,
2013-11-30 21:01:00,25.8,20.8,30.51,SSW,201,0.0,0.0,81,0.00,,,0.00,0,Wunderground v.1.15,2013-12-01 02:01:00,
2013-11-30 21:11:00,25.7,20.7,30.50,SSW,201,0.0,0.0,81,0.00,,,0.00,0,Wunderground v.1.15,2013-12-01 02:11:00,
2013-11-30 21:21:00,25.9,21.2,30.51,SSW,201,0.0,0.0,82,0.00,,,0.00,0,Wunderground v.1.15,2013-12-01 02:21:00,
2013-11-30 21:26:00,26.0,21.3,30.51,SSW,201,0.0,0.0,82,0.00,,,0.00,0,Wunderground v.1.15,2013-12-01 02:26:00,
2013-11-30 21:36:00,25.9,21.2,30.50,SSW,201,0.0,0.0,82,0.00,,,0.00,0,Wunderground v.1.15,2013-12-01 02:36:00,
2013-11-30 21:46:00,26.0,21.0,30.50,SSW,201,0.0,0.0,81,0.00,,,0.00,0,Wunderground v.1.15,2013-12-01 02:46:00,
2013-11-30 21:51:00,26.0,20.7,30.49,SSW,201,0.0,0.0,80,0.00,,,0.00,0,Wunderground v.1.15,2013-12-01 02:51:00,
2013-11-30 22:01:00,26.4,20.8,30.49,SSW,201,0.0,0.0,79,0.00,,,0.00,0,Wunderground v.1.15,2013-12-01 03:01:00,
2013-11-30 22:11:00,26.5,20.9,30.48,SSW,201,0.0,0.0,79,0.00,,,0.00,0,Wunderground v.1.15,2013-12-01 03:11:00,
2013-11-30 22:16:00,26.7,20.8,30.47,SSW,201,0.0,0.0,78,0.00,,,0.00,0,Wunderground v.1.15,2013-12-01 03:16:00,
2013-11-30 22:26:00,27.6,20.7,30.47,SSW,196,1.0,1.0,75,0.00,,,0.00,0,Wunderground v.1.15,2013-12-01 03:26:00,
2013-11-30 22:36:00,28.2,20.7,30.46,SSW,196,0.0,0.0,73,0.00,,,0.00,0,Wunderground v.1.15,2013-12-01 03:36:00,
2013-11-30 22:46:00,28.4,20.5,30.45,SSW,194,0.0,2.0,72,0.00,,,0.00,0,Wunderground v.1.15,2013-12-01 03:46:00,
2013-11-30 22:56:00,28.6,20.7,30.45,South,173,1.0,1.0,72,0.00,,,0.00,0,Wunderground v.1.15,2013-12-01 03:56:00,
2013-11-30 23:01:00,28.6,20.7,30.44,South,185,0.0,0.0,72,0.00,,,0.00,0,Wunderground v.1.15,2013-12-01 04:01:00,
2013-11-30 23:11:00,28.9,20.7,30.44,South,179,0.0,5.0,71,0.00,,,0.00,0,Wunderground v.1.15,2013-12-01 04:11:00,
2013-11-30 23:21:00,29.0,20.8,30.43,South,174,1.0,3.0,71,0.00,,,0.00,0,Wunderground v.1.15,2013-12-01 04:21:00,
2013-11-30 23:26:00,29.1,20.5,30.43,ESE,113,1.0,3.0,70,0.00,,,0.00,0,Wunderground v.1.15,2013-12-01 04:26:00,
2013-11-30 23:36:00,29.1,20.9,30.42,South,179,0.0,1.0,71,0.00,,,0.00,0,Wunderground v.1.15,2013-12-01 04:36:00,
2013-11-30 23:46:00,29.1,21.2,30.42,SE,132,0.0,0.0,72,0.00,,,0.00,0,Wunderground v.1.15,2013-12-01 04:46:00,
2013-11-30 23:56:00,29.3,21.1,30.42,South,184,0.0,1.0,71,0.00,,,0.00,0,Wunderground v.1.15,2013-12-01 04:56:00,